Limestone, Kentucky
Current Conditions -  °F | °C
As of 9:10 AM on Friday 24 Oct 2014 (Local Time) from KSYM Reporting Station
Haze Haze  
Wind Chill: 43°   Ceiling: Unl
Heat Index: 43°   Visibility: 1.7mi
Dew Point: 41°   Wind: 0mph
Humidity: 93%   Direction: NA
Pressure: 30.16"   Gusts: NA
Location:  38.3543°N, 83.1837°W
Report Text: KSYM 241310Z AUTO 00000KT 1 3/4SM BR CLR 06/05 A3016 RMK AO2
Loading
Personal Weather Stations






























Interactive Weather Map
Tropical Storm Tracking
New forecast layout! Learn more

10-Day Weather Forecast

Advertisements
Track Severe Weather on mobile